Hlavní strana
METAR-TAF:

METAR-TAF

Letiště :

Turku, Finsko

zeměpisná šířka: 60-31N, zeměpisná délka: 022-16E, výška: 49 m

Aktuální stav počasí

Zpráva byla vytvořena před 25 minutami, v 03:50 UTC
Západoseverozápadní vítr 5 kt
Teplota -16°C
Vlhkost vzduchu 84%
Tlak 1012 hPa
Viditelnost 10 km a více

METAR: EFTU 210350Z AUTO 30005KT 9999 BKN043/// M16/M18 Q1012

Čas: 06:15 (04:15 UTC)

Předpověď počasí

Zpráva byla vytvořena před 1 hodinou a 45 minutami, v 02:30 UTC
Předpověď platná od 21 v 03 UTC do 22 v 03 UTC
Západoseverozápadní vítr 3 kt
Viditelnost 10 km a více
Oblačno až skoro zataženo ve výšce 1700 ft
Pravděpodobnost 30%
od 21 v 22 UTC do 22 v 03 UTC
Viditelnost: 1200 m
Oblačno až skoro zataženo ve výšce 100 ft
chuchvalce mlhy

TAF: EFTU 210230Z 2103/2203 29003KT 9999 BKN017 PROB30 2122/2203 1200 BCFG BKN001

Stav a předpovědi počasí z více než 4 000 letišť (zprávy METAR a TAF).

Červené a žluté tečky na mapě představují dostupné meteorologické stanice.

Když kurzor umístíte na tečku, zobrazí se název stanice.

Pak kliknutím zobrazíte stav a předpověď počasí.

Chcete-li změnit mapu, kliknutím na zelené tlačítko se znaménkem +mapu přiblížíte, kliknutím na zelené tlačítko se znaménkem – mapu oddálíte a kliknutím na zelené šipky přejdete na sousední mapy.


METAR-TAF: